sensor_id;sensor_type;location;lat;lon;timestamp;P1;durP1;ratioP1;P2;durP2;ratioP2
42598;SDS011;28225;42.714;23.860;2023-05-07T00:00:02;22.00;;;15.23;;
42598;SDS011;28225;42.714;23.860;2023-05-07T00:00:18;20.95;;;15.23;;
42598;SDS011;28225;42.714;23.860;2023-05-07T00:00:34;18.05;;;14.90;;
42598;SDS011;28225;42.714;23.860;2023-05-07T00:00:49;21.27;;;14.87;;
42598;SDS011;28225;42.714;23.860;2023-05-07T00:01:06;21.42;;;15.23;;
42598;SDS011;28225;42.714;23.860;2023-05-07T00:01:21;18.60;;;14.67;;
42598;SDS011;28225;42.714;23.860;2023-05-07T00:01:37;17.80;;;14.10;;
42598;SDS011;28225;42.714;23.860;2023-05-07T00:01:52;17.33;;;13.97;;
42598;SDS011;28225;42.714;23.860;2023-05-07T00:02:08;18.30;;;13.68;;
42598;SDS011;28225;42.714;23.860;2023-05-07T00:02:25;20.98;;;13.95;;
42598;SDS011;28225;42.714;23.860;2023-05-07T00:02:41;22.33;;;14.45;;
42598;SDS011;28225;42.714;23.860;2023-05-07T00:02:56;22.07;;;15.27;;
42598;SDS011;28225;42.714;23.860;2023-05-07T00:03:11;20.10;;;15.07;;
42598;SDS011;28225;42.714;23.860;2023-05-07T00:03:28;20.10;;;14.75;;
42598;SDS011;28225;42.714;23.860;2023-05-07T00:03:44;20.83;;;14.65;;
42598;SDS011;28225;42.714;23.860;2023-05-07T00:03:59;20.63;;;14.83;;
42598;SDS011;28225;42.714;23.860;2023-05-07T00:04:14;23.10;;;15.07;;
42598;SDS011;28225;42.714;23.860;2023-05-07T00:04:30;21.88;;;14.88;;
42598;SDS011;28225;42.714;23.860;2023-05-07T00:04:51;18.95;;;14.95;;
42598;SDS011;28225;42.714;23.860;2023-05-07T00:05:07;19.30;;;14.57;;
42598;SDS011;28225;42.714;23.860;2023-05-07T00:05:23;20.35;;;14.40;;
42598;SDS011;28225;42.714;23.860;2023-05-07T00:05:39;20.00;;;14.97;;
42598;SDS011;28225;42.714;23.860;2023-05-07T00:05:54;20.42;;;15.48;;
42598;SDS011;28225;42.714;23.860;2023-05-07T00:06:10;20.10;;;15.15;;
42598;SDS011;28225;42.714;23.860;2023-05-07T00:06:27;20.48;;;15.35;;
42598;SDS011;28225;42.714;23.860;2023-05-07T00:06:45;20.00;;;15.40;;
42598;SDS011;28225;42.714;23.860;2023-05-07T00:07:00;20.67;;;15.52;;
42598;SDS011;28225;42.714;23.860;2023-05-07T00:07:15;21.90;;;15.27;;
42598;SDS011;28225;42.714;23.860;2023-05-07T00:07:31;22.02;;;15.05;;
42598;SDS011;28225;42.714;23.860;2023-05-07T00:07:46;21.07;;;15.57;;
42598;SDS011;28225;42.714;23.860;2023-05-07T00:08:02;19.92;;;15.18;;
42598;SDS011;28225;42.714;23.860;2023-05-07T00:08:18;20.35;;;15.10;;
42598;SDS011;28225;42.714;23.860;2023-05-07T00:08:34;20.90;;;14.80;;
42598;SDS011;28225;42.714;23.860;2023-05-07T00:08:49;19.60;;;14.17;;
42598;SDS011;28225;42.714;23.860;2023-05-07T00:09:05;19.45;;;14.32;;
42598;SDS011;28225;42.714;23.860;2023-05-07T00:09:21;21.77;;;14.73;;
42598;SDS011;28225;42.714;23.860;2023-05-07T00:09:36;21.37;;;13.97;;
42598;SDS011;28225;42.714;23.860;2023-05-07T00:09:52;18.60;;;13.90;;
42598;SDS011;28225;42.714;23.860;2023-05-07T00:10:07;19.77;;;14.53;;
42598;SDS011;28225;42.714;23.860;2023-05-07T00:10:23;21.17;;;14.98;;
42598;SDS011;28225;42.714;23.860;2023-05-07T00:10:38;18.83;;;14.43;;
42598;SDS011;28225;42.714;23.860;2023-05-07T00:10:55;16.67;;;13.07;;
42598;SDS011;28225;42.714;23.860;2023-05-07T00:11:11;17.95;;;13.15;;
42598;SDS011;28225;42.714;23.860;2023-05-07T00:11:27;20.03;;;13.33;;
42598;SDS011;28225;42.714;23.860;2023-05-07T00:11:42;20.60;;;13.80;;
42598;SDS011;28225;42.714;23.860;2023-05-07T00:11:58;18.50;;;14.30;;
42598;SDS011;28225;42.714;23.860;2023-05-07T00:12:13;17.27;;;13.70;;
42598;SDS011;28225;42.714;23.860;2023-05-07T00:12:29;17.75;;;13.13;;
42598;SDS011;28225;42.714;23.860;2023-05-07T00:12:48;17.05;;;13.00;;
42598;SDS011;28225;42.714;23.860;2023-05-07T00:13:04;16.80;;;13.18;;
42598;SDS011;28225;42.714;23.860;2023-05-07T00:13:19;19.13;;;13.37;;
42598;SDS011;28225;42.714;23.860;2023-05-07T00:13:35;22.17;;;14.05;;
42598;SDS011;28225;42.714;23.860;2023-05-07T00:13:50;21.60;;;14.07;;
42598;SDS011;28225;42.714;23.860;2023-05-07T00:14:06;19.15;;;12.95;;
42598;SDS011;28225;42.714;23.860;2023-05-07T00:14:22;15.83;;;12.07;;
42598;SDS011;28225;42.714;23.860;2023-05-07T00:14:37;13.93;;;11.65;;
42598;SDS011;28225;42.714;23.860;2023-05-07T00:14:52;15.83;;;12.00;;
42598;SDS011;28225;42.714;23.860;2023-05-07T00:15:08;18.38;;;12.73;;
42598;SDS011;28225;42.714;23.860;2023-05-07T00:15:24;17.10;;;12.70;;
42598;SDS011;28225;42.714;23.860;2023-05-07T00:15:39;17.40;;;12.63;;
42598;SDS011;28225;42.714;23.860;2023-05-07T00:15:55;18.07;;;12.83;;
42598;SDS011;28225;42.714;23.860;2023-05-07T00:16:10;16.05;;;12.32;;
42598;SDS011;28225;42.714;23.860;2023-05-07T00:16:25;18.53;;;12.57;;
42598;SDS011;28225;42.714;23.860;2023-05-07T00:16:41;17.52;;;12.77;;
42598;SDS011;28225;42.714;23.860;2023-05-07T00:16:56;14.67;;;12.17;;
42598;SDS011;28225;42.714;23.860;2023-05-07T00:17:12;15.83;;;11.60;;
42598;SDS011;28225;42.714;23.860;2023-05-07T00:17:27;15.60;;;10.90;;
42598;SDS011;28225;42.714;23.860;2023-05-07T00:17:44;16.35;;;11.15;;
42598;SDS011;28225;42.714;23.860;2023-05-07T00:17:59;16.30;;;12.15;;
42598;SDS011;28225;42.714;23.860;2023-05-07T00:18:15;13.90;;;11.73;;
42598;SDS011;28225;42.714;23.860;2023-05-07T00:18:31;14.13;;;11.30;;
42598;SDS011;28225;42.714;23.860;2023-05-07T00:18:46;18.38;;;11.65;;
42598;SDS011;28225;42.714;23.860;2023-05-07T00:19:01;20.33;;;11.60;;
42598;SDS011;28225;42.714;23.860;2023-05-07T00:19:17;21.27;;;11.75;;
42598;SDS011;28225;42.714;23.860;2023-05-07T00:19:32;18.07;;;11.37;;
42598;SDS011;28225;42.714;23.860;2023-05-07T00:19:48;16.33;;;11.10;;
42598;SDS011;28225;42.714;23.860;2023-05-07T00:20:03;17.40;;;11.70;;
42598;SDS011;28225;42.714;23.860;2023-05-07T00:20:20;14.38;;;11.55;;
42598;SDS011;28225;42.714;23.860;2023-05-07T00:20:35;14.43;;;11.23;;
42598;SDS011;28225;42.714;23.860;2023-05-07T00:20:50;14.63;;;11.27;;
42598;SDS011;28225;42.714;23.860;2023-05-07T00:21:06;13.70;;;10.73;;
42598;SDS011;28225;42.714;23.860;2023-05-07T00:21:21;14.27;;;10.48;;
42598;SDS011;28225;42.714;23.860;2023-05-07T00:21:37;14.93;;;11.07;;
42598;SDS011;28225;42.714;23.860;2023-05-07T00:21:52;14.27;;;11.02;;
42598;SDS011;28225;42.714;23.860;2023-05-07T00:22:11;13.77;;;10.90;;
42598;SDS011;28225;42.714;23.860;2023-05-07T00:22:26;15.02;;;11.27;;
42598;SDS011;28225;42.714;23.860;2023-05-07T00:22:42;14.47;;;10.90;;
42598;SDS011;28225;42.714;23.860;2023-05-07T00:22:57;15.00;;;11.32;;
42598;SDS011;28225;42.714;23.860;2023-05-07T00:23:13;17.50;;;12.07;;
42598;SDS011;28225;42.714;23.860;2023-05-07T00:23:28;18.47;;;12.30;;
42598;SDS011;28225;42.714;23.860;2023-05-07T00:23:43;16.08;;;11.93;;
42598;SDS011;28225;42.714;23.860;2023-05-07T00:23:59;16.23;;;12.90;;
42598;SDS011;28225;42.714;23.860;2023-05-07T00:24:14;20.88;;;14.82;;
42598;SDS011;28225;42.714;23.860;2023-05-07T00:24:30;20.83;;;14.77;;
42598;SDS011;28225;42.714;23.860;2023-05-07T00:24:45;20.73;;;15.45;;
42598;SDS011;28225;42.714;23.860;2023-05-07T00:25:00;22.53;;;17.00;;
42598;SDS011;28225;42.714;23.860;2023-05-07T00:25:16;23.73;;;18.13;;
42598;SDS011;28225;42.714;23.860;2023-05-07T00:25:31;22.77;;;17.40;;
42598;SDS011;28225;42.714;23.860;2023-05-07T00:25:47;20.90;;;16.20;;
42598;SDS011;28225;42.714;23.860;2023-05-07T00:26:03;21.02;;;16.40;;
42598;SDS011;28225;42.714;23.860;2023-05-07T00:26:18;21.30;;;16.35;;
42598;SDS011;28225;42.714;23.860;2023-05-07T00:26:34;21.30;;;15.30;;
42598;SDS011;28225;42.714;23.860;2023-05-07T00:26:49;21.25;;;14.00;;
42598;SDS011;28225;42.714;23.860;2023-05-07T00:27:05;20.30;;;13.87;;
42598;SDS011;28225;42.714;23.860;2023-05-07T00:27:20;18.15;;;13.88;;
42598;SDS011;28225;42.714;23.860;2023-05-07T00:27:36;17.57;;;13.43;;
42598;SDS011;28225;42.714;23.860;2023-05-07T00:27:51;19.75;;;14.18;;
42598;SDS011;28225;42.714;23.860;2023-05-07T00:28:07;20.03;;;14.53;;
42598;SDS011;28225;42.714;23.860;2023-05-07T00:28:22;19.80;;;14.10;;
42598;SDS011;28225;42.714;23.860;2023-05-07T00:28:37;20.40;;;14.30;;
42598;SDS011;28225;42.714;23.860;2023-05-07T00:28:53;18.87;;;14.40;;
42598;SDS011;28225;42.714;23.860;2023-05-07T00:29:08;17.73;;;13.88;;
42598;SDS011;28225;42.714;23.860;2023-05-07T00:29:24;15.97;;;13.40;;
42598;SDS011;28225;42.714;23.860;2023-05-07T00:29:39;15.57;;;13.07;;
42598;SDS011;28225;42.714;23.860;2023-05-07T00:29:54;16.23;;;12.67;;
42598;SDS011;28225;42.714;23.860;2023-05-07T00:30:10;18.53;;;12.87;;
42598;SDS011;28225;42.714;23.860;2023-05-07T00:30:26;19.55;;;13.32;;
42598;SDS011;28225;42.714;23.860;2023-05-07T00:30:41;18.35;;;13.15;;
42598;SDS011;28225;42.714;23.860;2023-05-07T00:30:57;17.77;;;13.30;;
42598;SDS011;28225;42.714;23.860;2023-05-07T00:31:12;18.20;;;13.82;;
42598;SDS011;28225;42.714;23.860;2023-05-07T00:31:28;17.77;;;13.50;;
42598;SDS011;28225;42.714;23.860;2023-05-07T00:31:43;16.58;;;13.02;;
42598;SDS011;28225;42.714;23.860;2023-05-07T00:31:59;17.33;;;13.17;;
42598;SDS011;28225;42.714;23.860;2023-05-07T00:32:14;18.40;;;13.37;;
42598;SDS011;28225;42.714;23.860;2023-05-07T00:32:29;17.60;;;13.27;;
42598;SDS011;28225;42.714;23.860;2023-05-07T00:32:45;16.70;;;12.43;;
42598;SDS011;28225;42.714;23.860;2023-05-07T00:33:00;15.77;;;11.90;;
42598;SDS011;28225;42.714;23.860;2023-05-07T00:33:17;16.60;;;12.70;;
42598;SDS011;28225;42.714;23.860;2023-05-07T00:33:33;17.97;;;13.87;;
42598;SDS011;28225;42.714;23.860;2023-05-07T00:33:48;18.10;;;13.27;;
42598;SDS011;28225;42.714;23.860;2023-05-07T00:34:04;16.77;;;12.27;;
42598;SDS011;28225;42.714;23.860;2023-05-07T00:34:19;16.90;;;12.60;;
42598;SDS011;28225;42.714;23.860;2023-05-07T00:34:35;16.52;;;12.30;;
42598;SDS011;28225;42.714;23.860;2023-05-07T00:34:50;17.83;;;12.60;;
42598;SDS011;28225;42.714;23.860;2023-05-07T00:35:06;19.30;;;13.77;;
42598;SDS011;28225;42.714;23.860;2023-05-07T00:35:22;19.05;;;13.85;;
42598;SDS011;28225;42.714;23.860;2023-05-07T00:35:37;17.75;;;13.35;;
42598;SDS011;28225;42.714;23.860;2023-05-07T00:35:53;16.77;;;13.07;;
42598;SDS011;28225;42.714;23.860;2023-05-07T00:36:09;16.58;;;13.18;;
42598;SDS011;28225;42.714;23.860;2023-05-07T00:36:24;16.75;;;13.43;;
42598;SDS011;28225;42.714;23.860;2023-05-07T00:36:41;17.48;;;13.40;;
42598;SDS011;28225;42.714;23.860;2023-05-07T00:36:56;19.47;;;13.90;;
42598;SDS011;28225;42.714;23.860;2023-05-07T00:37:11;19.30;;;14.30;;
42598;SDS011;28225;42.714;23.860;2023-05-07T00:37:27;19.27;;;14.20;;
42598;SDS011;28225;42.714;23.860;2023-05-07T00:37:42;18.90;;;13.70;;
42598;SDS011;28225;42.714;23.860;2023-05-07T00:37:58;18.00;;;13.87;;
42598;SDS011;28225;42.714;23.860;2023-05-07T00:38:13;17.10;;;13.77;;
42598;SDS011;28225;42.714;23.860;2023-05-07T00:38:29;17.50;;;13.73;;
42598;SDS011;28225;42.714;23.860;2023-05-07T00:38:44;19.57;;;14.00;;
42598;SDS011;28225;42.714;23.860;2023-05-07T00:39:00;19.27;;;14.13;;
42598;SDS011;28225;42.714;23.860;2023-05-07T00:39:18;18.13;;;14.38;;
42598;SDS011;28225;42.714;23.860;2023-05-07T00:39:33;17.10;;;13.90;;
42598;SDS011;28225;42.714;23.860;2023-05-07T00:39:50;16.73;;;13.45;;
42598;SDS011;28225;42.714;23.860;2023-05-07T00:40:05;16.27;;;13.40;;
42598;SDS011;28225;42.714;23.860;2023-05-07T00:40:22;17.90;;;13.75;;
42598;SDS011;28225;42.714;23.860;2023-05-07T00:40:37;18.17;;;14.05;;
42598;SDS011;28225;42.714;23.860;2023-05-07T00:40:53;19.33;;;14.67;;
42598;SDS011;28225;42.714;23.860;2023-05-07T00:41:08;21.10;;;14.47;;
42598;SDS011;28225;42.714;23.860;2023-05-07T00:41:24;20.45;;;14.70;;
42598;SDS011;28225;42.714;23.860;2023-05-07T00:41:39;19.00;;;15.43;;
42598;SDS011;28225;42.714;23.860;2023-05-07T00:41:55;17.63;;;15.17;;
42598;SDS011;28225;42.714;23.860;2023-05-07T00:42:10;19.07;;;16.50;;
42598;SDS011;28225;42.714;23.860;2023-05-07T00:42:26;23.60;;;18.92;;
42598;SDS011;28225;42.714;23.860;2023-05-07T00:42:42;24.17;;;18.70;;
42598;SDS011;28225;42.714;23.860;2023-05-07T00:43:02;22.73;;;18.67;;
42598;SDS011;28225;42.714;23.860;2023-05-07T00:43:17;27.60;;;18.67;;
42598;SDS011;28225;42.714;23.860;2023-05-07T00:43:32;38.27;;;18.23;;
42598;SDS011;28225;42.714;23.860;2023-05-07T00:43:48;40.42;;;18.60;;
42598;SDS011;28225;42.714;23.860;2023-05-07T00:44:03;32.37;;;18.80;;
42598;SDS011;28225;42.714;23.860;2023-05-07T00:44:18;25.30;;;19.65;;
42598;SDS011;28225;42.714;23.860;2023-05-07T00:44:34;27.87;;;19.93;;
42598;SDS011;28225;42.714;23.860;2023-05-07T00:44:49;30.67;;;20.50;;
42598;SDS011;28225;42.714;23.860;2023-05-07T00:45:05;30.67;;;20.95;;
42598;SDS011;28225;42.714;23.860;2023-05-07T00:45:22;30.25;;;20.85;;
42598;SDS011;28225;42.714;23.860;2023-05-07T00:45:40;25.70;;;20.63;;
42598;SDS011;28225;42.714;23.860;2023-05-07T00:45:55;26.93;;;21.10;;
42598;SDS011;28225;42.714;23.860;2023-05-07T00:46:11;27.90;;;21.40;;
42598;SDS011;28225;42.714;23.860;2023-05-07T00:46:27;24.08;;;20.45;;
42598;SDS011;28225;42.714;23.860;2023-05-07T00:46:42;23.20;;;19.57;;
42598;SDS011;28225;42.714;23.860;2023-05-07T00:46:57;23.48;;;18.77;;
42598;SDS011;28225;42.714;23.860;2023-05-07T00:47:13;24.47;;;18.50;;
42598;SDS011;28225;42.714;23.860;2023-05-07T00:47:29;22.92;;;17.92;;
42598;SDS011;28225;42.714;23.860;2023-05-07T00:47:44;22.67;;;18.13;;
42598;SDS011;28225;42.714;23.860;2023-05-07T00:48:00;24.48;;;18.98;;
42598;SDS011;28225;42.714;23.860;2023-05-07T00:48:16;25.48;;;19.90;;
42598;SDS011;28225;42.714;23.860;2023-05-07T00:48:31;25.30;;;20.03;;
42598;SDS011;28225;42.714;23.860;2023-05-07T00:48:47;25.13;;;20.60;;
42598;SDS011;28225;42.714;23.860;2023-05-07T00:49:02;24.80;;;20.27;;
42598;SDS011;28225;42.714;23.860;2023-05-07T00:49:18;25.27;;;20.23;;
42598;SDS011;28225;42.714;23.860;2023-05-07T00:49:38;26.02;;;21.02;;
42598;SDS011;28225;42.714;23.860;2023-05-07T00:49:56;30.77;;;22.48;;
42598;SDS011;28225;42.714;23.860;2023-05-07T00:50:11;27.57;;;21.47;;
42598;SDS011;28225;42.714;23.860;2023-05-07T00:50:27;24.55;;;20.00;;
42598;SDS011;28225;42.714;23.860;2023-05-07T00:50:43;25.00;;;19.45;;
42598;SDS011;28225;42.714;23.860;2023-05-07T00:50:59;23.10;;;18.48;;
42598;SDS011;28225;42.714;23.860;2023-05-07T00:51:14;23.10;;;18.00;;
42598;SDS011;28225;42.714;23.860;2023-05-07T00:51:30;24.17;;;18.63;;
42598;SDS011;28225;42.714;23.860;2023-05-07T00:51:45;22.77;;;18.63;;
42598;SDS011;28225;42.714;23.860;2023-05-07T00:52:01;21.40;;;17.70;;
42598;SDS011;28225;42.714;23.860;2023-05-07T00:52:17;21.20;;;17.30;;
42598;SDS011;28225;42.714;23.860;2023-05-07T00:52:32;22.55;;;17.58;;
42598;SDS011;28225;42.714;23.860;2023-05-07T00:52:48;20.77;;;16.38;;
42598;SDS011;28225;42.714;23.860;2023-05-07T00:53:03;20.50;;;16.40;;
42598;SDS011;28225;42.714;23.860;2023-05-07T00:53:19;21.15;;;16.58;;
42598;SDS011;28225;42.714;23.860;2023-05-07T00:53:35;21.67;;;16.42;;
42598;SDS011;28225;42.714;23.860;2023-05-07T00:53:51;20.45;;;16.45;;
42598;SDS011;28225;42.714;23.860;2023-05-07T00:54:06;19.37;;;16.00;;
42598;SDS011;28225;42.714;23.860;2023-05-07T00:54:22;21.08;;;16.60;;
42598;SDS011;28225;42.714;23.860;2023-05-07T00:54:37;21.23;;;16.60;;
42598;SDS011;28225;42.714;23.860;2023-05-07T00:54:53;20.58;;;16.65;;
42598;SDS011;28225;42.714;23.860;2023-05-07T00:55:09;20.25;;;16.98;;
42598;SDS011;28225;42.714;23.860;2023-05-07T00:55:25;20.27;;;16.42;;
42598;SDS011;28225;42.714;23.860;2023-05-07T00:55:40;20.83;;;16.90;;
42598;SDS011;28225;42.714;23.860;2023-05-07T00:55:56;21.00;;;17.27;;
42598;SDS011;28225;42.714;23.860;2023-05-07T00:56:11;19.90;;;16.60;;
42598;SDS011;28225;42.714;23.860;2023-05-07T00:56:27;18.05;;;15.80;;
42598;SDS011;28225;42.714;23.860;2023-05-07T00:56:42;20.43;;;17.03;;
42598;SDS011;28225;42.714;23.860;2023-05-07T00:56:59;20.90;;;16.75;;
42598;SDS011;28225;42.714;23.860;2023-05-07T00:57:15;18.05;;;15.10;;
42598;SDS011;28225;42.714;23.860;2023-05-07T00:57:32;17.37;;;14.90;;
42598;SDS011;28225;42.714;23.860;2023-05-07T00:57:50;17.27;;;15.15;;
42598;SDS011;28225;42.714;23.860;2023-05-07T00:58:06;18.00;;;15.87;;
42598;SDS011;28225;42.714;23.860;2023-05-07T00:58:21;20.90;;;16.57;;
42598;SDS011;28225;42.714;23.860;2023-05-07T00:58:37;20.75;;;16.30;;
42598;SDS011;28225;42.714;23.860;2023-05-07T00:58:52;19.67;;;15.97;;
42598;SDS011;28225;42.714;23.860;2023-05-07T00:59:08;18.88;;;15.38;;
42598;SDS011;28225;42.714;23.860;2023-05-07T00:59:23;19.30;;;15.50;;
42598;SDS011;28225;42.714;23.860;2023-05-07T00:59:38;20.47;;;16.53;;
42598;SDS011;28225;42.714;23.860;2023-05-07T00:59:55;20.67;;;16.65;;
42598;SDS011;28225;42.714;23.860;2023-05-07T01:00:11;20.13;;;16.40;;
42598;SDS011;28225;42.714;23.860;2023-05-07T01:00:27;18.67;;;16.73;;
42598;SDS011;28225;42.714;23.860;2023-05-07T01:00:43;18.13;;;16.20;;
42598;SDS011;28225;42.714;23.860;2023-05-07T01:00:59;19.05;;;15.55;;
42598;SDS011;28225;42.714;23.860;2023-05-07T01:01:14;18.93;;;15.50;;
42598;SDS011;28225;42.714;23.860;2023-05-07T01:01:33;18.48;;;14.65;;
42598;SDS011;28225;42.714;23.860;2023-05-07T01:01:48;18.48;;;14.02;;
42598;SDS011;28225;42.714;23.860;2023-05-07T01:02:03;17.73;;;14.47;;
42598;SDS011;28225;42.714;23.860;2023-05-07T01:02:19;17.25;;;14.95;;
42598;SDS011;28225;42.714;23.860;2023-05-07T01:02:40;18.37;;;14.87;;
42598;SDS011;28225;42.714;23.860;2023-05-07T01:02:56;18.48;;;14.13;;
42598;SDS011;28225;42.714;23.860;2023-05-07T01:03:12;17.33;;;14.27;;
42598;SDS011;28225;42.714;23.860;2023-05-07T01:03:27;16.90;;;13.90;;
42598;SDS011;28225;42.714;23.860;2023-05-07T01:03:43;15.65;;;13.38;;
42598;SDS011;28225;42.714;23.860;2023-05-07T01:03:59;14.90;;;13.00;;
42598;SDS011;28225;42.714;23.860;2023-05-07T01:04:14;17.17;;;12.70;;
42598;SDS011;28225;42.714;23.860;2023-05-07T01:04:30;18.27;;;13.50;;
42598;SDS011;28225;42.714;23.860;2023-05-07T01:04:45;18.27;;;15.23;;
42598;SDS011;28225;42.714;23.860;2023-05-07T01:05:01;18.63;;;15.33;;
42598;SDS011;28225;42.714;23.860;2023-05-07T01:05:17;19.85;;;14.88;;
42598;SDS011;28225;42.714;23.860;2023-05-07T01:05:35;20.52;;;14.95;;
42598;SDS011;28225;42.714;23.860;2023-05-07T01:05:50;17.60;;;14.18;;
42598;SDS011;28225;42.714;23.860;2023-05-07T01:06:06;15.68;;;13.65;;
42598;SDS011;28225;42.714;23.860;2023-05-07T01:06:23;15.73;;;14.10;;
42598;SDS011;28225;42.714;23.860;2023-05-07T01:06:39;15.45;;;13.85;;
42598;SDS011;28225;42.714;23.860;2023-05-07T01:06:56;16.77;;;13.50;;
42598;SDS011;28225;42.714;23.860;2023-05-07T01:07:12;16.55;;;13.20;;
42598;SDS011;28225;42.714;23.860;2023-05-07T01:07:27;16.02;;;13.68;;
42598;SDS011;28225;42.714;23.860;2023-05-07T01:07:43;17.25;;;14.30;;
42598;SDS011;28225;42.714;23.860;2023-05-07T01:07:59;17.55;;;14.65;;
42598;SDS011;28225;42.714;23.860;2023-05-07T01:08:15;18.83;;;15.43;;
42598;SDS011;28225;42.714;23.860;2023-05-07T01:08:31;23.52;;;16.13;;
42598;SDS011;28225;42.714;23.860;2023-05-07T01:08:47;23.77;;;15.18;;
42598;SDS011;28225;42.714;23.860;2023-05-07T01:09:05;18.55;;;14.23;;
42598;SDS011;28225;42.714;23.860;2023-05-07T01:09:20;18.70;;;14.47;;
42598;SDS011;28225;42.714;23.860;2023-05-07T01:09:37;19.58;;;15.10;;
42598;SDS011;28225;42.714;23.860;2023-05-07T01:09:52;19.10;;;15.95;;
42598;SDS011;28225;42.714;23.860;2023-05-07T01:10:08;21.50;;;17.17;;
42598;SDS011;28225;42.714;23.860;2023-05-07T01:10:24;21.92;;;16.63;;
42598;SDS011;28225;42.714;23.860;2023-05-07T01:10:40;19.73;;;15.43;;
42598;SDS011;28225;42.714;23.860;2023-05-07T01:10:57;20.83;;;16.30;;
42598;SDS011;28225;42.714;23.860;2023-05-07T01:11:13;23.42;;;17.40;;
42598;SDS011;28225;42.714;23.860;2023-05-07T01:11:29;23.30;;;17.50;;
42598;SDS011;28225;42.714;23.860;2023-05-07T01:11:44;23.55;;;16.92;;
42598;SDS011;28225;42.714;23.860;2023-05-07T01:11:59;21.83;;;16.37;;
42598;SDS011;28225;42.714;23.860;2023-05-07T01:12:15;20.70;;;16.33;;
42598;SDS011;28225;42.714;23.860;2023-05-07T01:12:30;24.27;;;17.52;;
42598;SDS011;28225;42.714;23.860;2023-05-07T01:12:46;25.15;;;18.67;;
42598;SDS011;28225;42.714;23.860;2023-05-07T01:13:03;25.73;;;19.15;;
42598;SDS011;28225;42.714;23.860;2023-05-07T01:13:19;25.93;;;18.47;;
42598;SDS011;28225;42.714;23.860;2023-05-07T01:13:34;23.90;;;17.85;;
42598;SDS011;28225;42.714;23.860;2023-05-07T01:13:50;23.17;;;18.33;;
42598;SDS011;28225;42.714;23.860;2023-05-07T01:14:06;22.13;;;17.57;;
42598;SDS011;28225;42.714;23.860;2023-05-07T01:14:22;20.63;;;16.33;;
42598;SDS011;28225;42.714;23.860;2023-05-07T01:14:37;22.70;;;15.87;;
42598;SDS011;28225;42.714;23.860;2023-05-07T01:14:53;54.67;;;18.00;;
42598;SDS011;28225;42.714;23.860;2023-05-07T01:15:09;66.25;;;20.23;;
42598;SDS011;28225;42.714;23.860;2023-05-07T01:15:24;37.78;;;18.88;;
42598;SDS011;28225;42.714;23.860;2023-05-07T01:15:40;27.47;;;17.27;;
42598;SDS011;28225;42.714;23.860;2023-05-07T01:15:56;21.70;;;16.95;;
42598;SDS011;28225;42.714;23.860;2023-05-07T01:16:11;20.17;;;16.80;;
42598;SDS011;28225;42.714;23.860;2023-05-07T01:16:26;19.03;;;16.03;;
42598;SDS011;28225;42.714;23.860;2023-05-07T01:16:42;20.42;;;17.00;;
42598;SDS011;28225;42.714;23.860;2023-05-07T01:16:57;21.13;;;16.77;;
42598;SDS011;28225;42.714;23.860;2023-05-07T01:17:13;21.50;;;15.75;;
42598;SDS011;28225;42.714;23.860;2023-05-07T01:17:32;20.52;;;15.80;;
42598;SDS011;28225;42.714;23.860;2023-05-07T01:17:48;18.35;;;15.65;;
42598;SDS011;28225;42.714;23.860;2023-05-07T01:18:04;17.30;;;15.10;;
42598;SDS011;28225;42.714;23.860;2023-05-07T01:18:21;18.58;;;15.07;;
42598;SDS011;28225;42.714;23.860;2023-05-07T01:18:37;19.10;;;15.33;;
42598;SDS011;28225;42.714;23.860;2023-05-07T01:18:52;20.75;;;16.40;;
42598;SDS011;28225;42.714;23.860;2023-05-07T01:19:08;22.00;;;16.70;;
42598;SDS011;28225;42.714;23.860;2023-05-07T01:19:26;20.42;;;16.55;;
42598;SDS011;28225;42.714;23.860;2023-05-07T01:19:42;19.67;;;16.48;;
42598;SDS011;28225;42.714;23.860;2023-05-07T01:19:57;20.87;;;16.20;;
42598;SDS011;28225;42.714;23.860;2023-05-07T01:20:12;21.08;;;16.45;;
42598;SDS011;28225;42.714;23.860;2023-05-07T01:20:29;20.92;;;16.88;;
42598;SDS011;28225;42.714;23.860;2023-05-07T01:20:44;22.17;;;17.58;;
42598;SDS011;28225;42.714;23.860;2023-05-07T01:21:00;24.30;;;17.90;;
42598;SDS011;28225;42.714;23.860;2023-05-07T01:21:16;24.52;;;17.75;;
42598;SDS011;28225;42.714;23.860;2023-05-07T01:21:33;23.80;;;17.52;;
42598;SDS011;28225;42.714;23.860;2023-05-07T01:21:49;24.30;;;17.30;;
42598;SDS011;28225;42.714;23.860;2023-05-07T01:22:09;22.55;;;17.23;;
42598;SDS011;28225;42.714;23.860;2023-05-07T01:22:30;21.38;;;16.80;;
42598;SDS011;28225;42.714;23.860;2023-05-07T01:22:48;21.50;;;16.77;;
42598;SDS011;28225;42.714;23.860;2023-05-07T01:23:04;19.83;;;16.30;;
42598;SDS011;28225;42.714;23.860;2023-05-07T01:23:21;18.83;;;16.00;;
42598;SDS011;28225;42.714;23.860;2023-05-07T01:23:37;18.80;;;16.25;;
42598;SDS011;28225;42.714;23.860;2023-05-07T01:23:53;20.00;;;16.52;;
42598;SDS011;28225;42.714;23.860;2023-05-07T01:24:09;18.55;;;15.88;;
42598;SDS011;28225;42.714;23.860;2023-05-07T01:24:25;20.83;;;15.73;;
42598;SDS011;28225;42.714;23.860;2023-05-07T01:24:40;21.50;;;15.85;;
42598;SDS011;28225;42.714;23.860;2023-05-07T01:24:56;17.58;;;15.32;;
42598;SDS011;28225;42.714;23.860;2023-05-07T01:25:12;17.43;;;14.53;;
42598;SDS011;28225;42.714;23.860;2023-05-07T01:25:28;17.57;;;14.40;;
42598;SDS011;28225;42.714;23.860;2023-05-07T01:25:50;18.00;;;15.00;;
42598;SDS011;28225;42.714;23.860;2023-05-07T01:26:09;17.27;;;14.50;;
42598;SDS011;28225;42.714;23.860;2023-05-07T01:26:24;16.37;;;14.07;;
42598;SDS011;28225;42.714;23.860;2023-05-07T01:26:40;17.08;;;13.52;;
42598;SDS011;28225;42.714;23.860;2023-05-07T01:26:56;18.38;;;14.50;;
42598;SDS011;28225;42.714;23.860;2023-05-07T01:27:11;18.38;;;15.40;;
42598;SDS011;28225;42.714;23.860;2023-05-07T01:27:27;18.10;;;15.00;;
42598;SDS011;28225;42.714;23.860;2023-05-07T01:27:43;17.73;;;14.75;;
42598;SDS011;28225;42.714;23.860;2023-05-07T01:27:58;17.97;;;14.83;;
42598;SDS011;28225;42.714;23.860;2023-05-07T01:28:17;18.50;;;14.88;;
42598;SDS011;28225;42.714;23.860;2023-05-07T01:28:32;19.13;;;14.93;;
42598;SDS011;28225;42.714;23.860;2023-05-07T01:28:47;19.20;;;14.13;;
42598;SDS011;28225;42.714;23.860;2023-05-07T01:29:03;18.47;;;14.23;;
42598;SDS011;28225;42.714;23.860;2023-05-07T01:29:18;17.60;;;14.80;;
42598;SDS011;28225;42.714;23.860;2023-05-07T01:29:33;17.63;;;14.85;;
42598;SDS011;28225;42.714;23.860;2023-05-07T01:29:49;18.87;;;15.23;;
42598;SDS011;28225;42.714;23.860;2023-05-07T01:30:05;19.20;;;15.68;;
42598;SDS011;28225;42.714;23.860;2023-05-07T01:30:21;18.38;;;15.63;;
42598;SDS011;28225;42.714;23.860;2023-05-07T01:30:36;17.33;;;15.35;;
42598;SDS011;28225;42.714;23.860;2023-05-07T01:30:55;17.42;;;15.18;;
42598;SDS011;28225;42.714;23.860;2023-05-07T01:31:16;19.77;;;15.90;;
42598;SDS011;28225;42.714;23.860;2023-05-07T01:31:32;17.60;;;15.05;;